sensor_id;sensor_type;location;lat;lon;timestamp;P1;durP1;ratioP1;P2;durP2;ratioP2
30998;SDS011;20549;50.042;8.968;2024-02-23T00:01:44;1.17;;;0.67;;
30998;SDS011;20549;50.042;8.968;2024-02-23T00:04:10;0.97;;;0.60;;
30998;SDS011;20549;50.042;8.968;2024-02-23T00:06:37;1.00;;;0.70;;
30998;SDS011;20549;50.042;8.968;2024-02-23T00:09:03;1.03;;;0.60;;
30998;SDS011;20549;50.042;8.968;2024-02-23T00:11:30;0.77;;;0.77;;
30998;SDS011;20549;50.042;8.968;2024-02-23T00:13:57;1.27;;;0.90;;
30998;SDS011;20549;50.042;8.968;2024-02-23T00:16:23;1.00;;;0.90;;
30998;SDS011;20549;50.042;8.968;2024-02-23T00:18:50;1.20;;;0.80;;
30998;SDS011;20549;50.042;8.968;2024-02-23T00:21:16;2.73;;;0.60;;
30998;SDS011;20549;50.042;8.968;2024-02-23T00:23:43;0.80;;;0.70;;
30998;SDS011;20549;50.042;8.968;2024-02-23T00:26:10;1.13;;;0.73;;
30998;SDS011;20549;50.042;8.968;2024-02-23T00:28:36;1.13;;;0.87;;
30998;SDS011;20549;50.042;8.968;2024-02-23T00:31:03;0.97;;;0.80;;
30998;SDS011;20549;50.042;8.968;2024-02-23T00:33:29;3.47;;;0.90;;
30998;SDS011;20549;50.042;8.968;2024-02-23T00:35:56;3.70;;;0.90;;
30998;SDS011;20549;50.042;8.968;2024-02-23T00:38:22;1.53;;;1.10;;
30998;SDS011;20549;50.042;8.968;2024-02-23T00:40:49;1.63;;;0.80;;
30998;SDS011;20549;50.042;8.968;2024-02-23T00:43:16;1.93;;;0.80;;
30998;SDS011;20549;50.042;8.968;2024-02-23T00:45:42;2.80;;;0.77;;
30998;SDS011;20549;50.042;8.968;2024-02-23T00:48:09;1.10;;;0.70;;
30998;SDS011;20549;50.042;8.968;2024-02-23T00:50:35;3.97;;;0.77;;
30998;SDS011;20549;50.042;8.968;2024-02-23T00:53:02;1.30;;;0.60;;
30998;SDS011;20549;50.042;8.968;2024-02-23T00:55:29;1.60;;;0.83;;
30998;SDS011;20549;50.042;8.968;2024-02-23T00:57:55;2.63;;;0.93;;
30998;SDS011;20549;50.042;8.968;2024-02-23T01:00:22;1.30;;;0.90;;
30998;SDS011;20549;50.042;8.968;2024-02-23T01:02:48;2.07;;;1.00;;
30998;SDS011;20549;50.042;8.968;2024-02-23T01:05:15;1.73;;;0.90;;
30998;SDS011;20549;50.042;8.968;2024-02-23T01:07:41;1.40;;;0.87;;
30998;SDS011;20549;50.042;8.968;2024-02-23T01:10:08;2.67;;;0.90;;
30998;SDS011;20549;50.042;8.968;2024-02-23T01:12:35;2.03;;;0.70;;
30998;SDS011;20549;50.042;8.968;2024-02-23T01:15:01;1.10;;;1.00;;
30998;SDS011;20549;50.042;8.968;2024-02-23T01:17:28;2.17;;;0.93;;
30998;SDS011;20549;50.042;8.968;2024-02-23T01:19:54;1.23;;;0.70;;
30998;SDS011;20549;50.042;8.968;2024-02-23T01:22:21;1.30;;;0.77;;
30998;SDS011;20549;50.042;8.968;2024-02-23T01:24:48;2.30;;;1.03;;
30998;SDS011;20549;50.042;8.968;2024-02-23T01:27:14;1.83;;;0.77;;
30998;SDS011;20549;50.042;8.968;2024-02-23T01:29:41;1.63;;;1.17;;
30998;SDS011;20549;50.042;8.968;2024-02-23T01:32:07;0.57;;;0.57;;
30998;SDS011;20549;50.042;8.968;2024-02-23T01:34:34;0.70;;;0.53;;
30998;SDS011;20549;50.042;8.968;2024-02-23T01:37:01;2.27;;;0.87;;
30998;SDS011;20549;50.042;8.968;2024-02-23T01:39:27;1.17;;;0.90;;
30998;SDS011;20549;50.042;8.968;2024-02-23T01:41:54;3.60;;;1.23;;
30998;SDS011;20549;50.042;8.968;2024-02-23T01:44:20;3.83;;;0.87;;
30998;SDS011;20549;50.042;8.968;2024-02-23T01:46:47;1.33;;;0.60;;
30998;SDS011;20549;50.042;8.968;2024-02-23T01:49:13;1.93;;;0.80;;
30998;SDS011;20549;50.042;8.968;2024-02-23T01:51:40;0.80;;;0.80;;
30998;SDS011;20549;50.042;8.968;2024-02-23T01:54:07;1.73;;;0.70;;
30998;SDS011;20549;50.042;8.968;2024-02-23T01:56:33;1.00;;;0.90;;
30998;SDS011;20549;50.042;8.968;2024-02-23T01:59:00;0.70;;;0.70;;
30998;SDS011;20549;50.042;8.968;2024-02-23T02:01:26;1.87;;;0.73;;
30998;SDS011;20549;50.042;8.968;2024-02-23T02:03:53;1.10;;;0.83;;
30998;SDS011;20549;50.042;8.968;2024-02-23T02:06:20;1.07;;;0.80;;
30998;SDS011;20549;50.042;8.968;2024-02-23T02:08:46;1.23;;;0.70;;
30998;SDS011;20549;50.042;8.968;2024-02-23T02:11:13;3.20;;;0.83;;
30998;SDS011;20549;50.042;8.968;2024-02-23T02:13:39;1.27;;;0.70;;
30998;SDS011;20549;50.042;8.968;2024-02-23T02:16:06;1.80;;;0.80;;
30998;SDS011;20549;50.042;8.968;2024-02-23T02:18:33;2.07;;;0.83;;
30998;SDS011;20549;50.042;8.968;2024-02-23T02:20:59;1.33;;;0.83;;
30998;SDS011;20549;50.042;8.968;2024-02-23T02:23:26;3.10;;;0.97;;
30998;SDS011;20549;50.042;8.968;2024-02-23T02:25:53;0.90;;;0.90;;
30998;SDS011;20549;50.042;8.968;2024-02-23T02:28:19;1.67;;;0.90;;
30998;SDS011;20549;50.042;8.968;2024-02-23T02:30:45;1.67;;;1.40;;
30998;SDS011;20549;50.042;8.968;2024-02-23T02:33:12;2.13;;;1.07;;
30998;SDS011;20549;50.042;8.968;2024-02-23T02:35:39;2.30;;;1.00;;
30998;SDS011;20549;50.042;8.968;2024-02-23T02:38:05;1.00;;;0.80;;
30998;SDS011;20549;50.042;8.968;2024-02-23T02:40:32;0.60;;;0.60;;
30998;SDS011;20549;50.042;8.968;2024-02-23T02:42:58;0.97;;;0.87;;
30998;SDS011;20549;50.042;8.968;2024-02-23T02:45:25;1.50;;;1.00;;
30998;SDS011;20549;50.042;8.968;2024-02-23T02:47:52;1.10;;;0.83;;
30998;SDS011;20549;50.042;8.968;2024-02-23T02:50:18;0.90;;;0.60;;
30998;SDS011;20549;50.042;8.968;2024-02-23T02:52:45;1.90;;;0.80;;
30998;SDS011;20549;50.042;8.968;2024-02-23T02:55:11;0.80;;;0.70;;
30998;SDS011;20549;50.042;8.968;2024-02-23T02:57:38;2.10;;;0.83;;
30998;SDS011;20549;50.042;8.968;2024-02-23T03:00:05;1.73;;;1.07;;
30998;SDS011;20549;50.042;8.968;2024-02-23T03:02:31;1.83;;;0.77;;
30998;SDS011;20549;50.042;8.968;2024-02-23T03:04:58;1.43;;;0.77;;
30998;SDS011;20549;50.042;8.968;2024-02-23T03:07:24;1.43;;;1.03;;
30998;SDS011;20549;50.042;8.968;2024-02-23T03:09:51;1.77;;;0.80;;
30998;SDS011;20549;50.042;8.968;2024-02-23T03:12:18;2.63;;;0.80;;
30998;SDS011;20549;50.042;8.968;2024-02-23T03:14:44;0.83;;;0.60;;
30998;SDS011;20549;50.042;8.968;2024-02-23T03:17:11;0.67;;;0.60;;
30998;SDS011;20549;50.042;8.968;2024-02-23T03:19:37;1.63;;;0.67;;
30998;SDS011;20549;50.042;8.968;2024-02-23T03:22:04;2.70;;;1.10;;
30998;SDS011;20549;50.042;8.968;2024-02-23T03:24:30;1.10;;;0.80;;
30998;SDS011;20549;50.042;8.968;2024-02-23T03:26:57;0.77;;;0.73;;
30998;SDS011;20549;50.042;8.968;2024-02-23T03:29:24;1.27;;;1.07;;
30998;SDS011;20549;50.042;8.968;2024-02-23T03:31:50;1.93;;;0.70;;
30998;SDS011;20549;50.042;8.968;2024-02-23T03:34:17;1.37;;;0.90;;
30998;SDS011;20549;50.042;8.968;2024-02-23T03:36:43;2.53;;;0.93;;
30998;SDS011;20549;50.042;8.968;2024-02-23T03:39:10;9.43;;;1.00;;
30998;SDS011;20549;50.042;8.968;2024-02-23T03:41:36;1.20;;;0.90;;
30998;SDS011;20549;50.042;8.968;2024-02-23T03:44:03;0.70;;;0.70;;
30998;SDS011;20549;50.042;8.968;2024-02-23T03:46:30;1.70;;;1.10;;
30998;SDS011;20549;50.042;8.968;2024-02-23T03:48:56;1.13;;;0.80;;
30998;SDS011;20549;50.042;8.968;2024-02-23T03:51:23;1.23;;;0.90;;
30998;SDS011;20549;50.042;8.968;2024-02-23T03:53:49;0.70;;;0.70;;
30998;SDS011;20549;50.042;8.968;2024-02-23T03:56:16;1.30;;;0.73;;
30998;SDS011;20549;50.042;8.968;2024-02-23T03:58:43;1.43;;;0.83;;
30998;SDS011;20549;50.042;8.968;2024-02-23T04:01:09;0.97;;;0.80;;
30998;SDS011;20549;50.042;8.968;2024-02-23T04:03:36;1.77;;;0.70;;
30998;SDS011;20549;50.042;8.968;2024-02-23T04:06:02;3.10;;;0.90;;
30998;SDS011;20549;50.042;8.968;2024-02-23T04:08:29;3.77;;;1.13;;
30998;SDS011;20549;50.042;8.968;2024-02-23T04:10:55;1.47;;;1.20;;
30998;SDS011;20549;50.042;8.968;2024-02-23T04:13:22;1.47;;;1.10;;
30998;SDS011;20549;50.042;8.968;2024-02-23T04:15:49;2.93;;;0.60;;
30998;SDS011;20549;50.042;8.968;2024-02-23T04:18:15;1.70;;;1.17;;
30998;SDS011;20549;50.042;8.968;2024-02-23T04:20:42;2.30;;;1.00;;
30998;SDS011;20549;50.042;8.968;2024-02-23T04:23:08;2.63;;;1.37;;
30998;SDS011;20549;50.042;8.968;2024-02-23T04:25:35;1.10;;;0.73;;
30998;SDS011;20549;50.042;8.968;2024-02-23T04:28:02;2.07;;;1.03;;
30998;SDS011;20549;50.042;8.968;2024-02-23T04:30:28;2.37;;;1.10;;
30998;SDS011;20549;50.042;8.968;2024-02-23T04:32:55;3.53;;;1.20;;
30998;SDS011;20549;50.042;8.968;2024-02-23T04:35:21;1.40;;;1.07;;
30998;SDS011;20549;50.042;8.968;2024-02-23T04:37:48;1.67;;;0.93;;
30998;SDS011;20549;50.042;8.968;2024-02-23T04:40:14;1.47;;;0.90;;
30998;SDS011;20549;50.042;8.968;2024-02-23T04:42:43;1.10;;;0.90;;
30998;SDS011;20549;50.042;8.968;2024-02-23T04:45:08;4.77;;;1.20;;
30998;SDS011;20549;50.042;8.968;2024-02-23T04:47:34;1.13;;;1.03;;
30998;SDS011;20549;50.042;8.968;2024-02-23T04:50:01;1.97;;;1.23;;
30998;SDS011;20549;50.042;8.968;2024-02-23T04:52:27;1.30;;;0.83;;
30998;SDS011;20549;50.042;8.968;2024-02-23T04:54:54;1.60;;;1.27;;
30998;SDS011;20549;50.042;8.968;2024-02-23T04:57:21;2.07;;;0.70;;
30998;SDS011;20549;50.042;8.968;2024-02-23T04:59:47;2.00;;;1.00;;
30998;SDS011;20549;50.042;8.968;2024-02-23T05:02:14;0.50;;;0.50;;
30998;SDS011;20549;50.042;8.968;2024-02-23T05:04:40;0.97;;;0.90;;
30998;SDS011;20549;50.042;8.968;2024-02-23T05:07:07;1.43;;;1.00;;
30998;SDS011;20549;50.042;8.968;2024-02-23T05:09:33;2.10;;;1.13;;
30998;SDS011;20549;50.042;8.968;2024-02-23T05:12:00;4.30;;;1.00;;
30998;SDS011;20549;50.042;8.968;2024-02-23T05:14:27;0.73;;;0.67;;
30998;SDS011;20549;50.042;8.968;2024-02-23T05:16:53;1.20;;;0.73;;
30998;SDS011;20549;50.042;8.968;2024-02-23T05:19:20;0.53;;;0.53;;
30998;SDS011;20549;50.042;8.968;2024-02-23T05:21:46;1.77;;;1.00;;
30998;SDS011;20549;50.042;8.968;2024-02-23T05:24:13;3.03;;;1.00;;
30998;SDS011;20549;50.042;8.968;2024-02-23T05:26:40;1.47;;;0.87;;
30998;SDS011;20549;50.042;8.968;2024-02-23T05:29:06;2.93;;;0.90;;
30998;SDS011;20549;50.042;8.968;2024-02-23T05:31:45;1.80;;;0.80;;
30998;SDS011;20549;50.042;8.968;2024-02-23T05:34:11;1.87;;;0.80;;
30998;SDS011;20549;50.042;8.968;2024-02-23T05:36:38;0.63;;;0.63;;
30998;SDS011;20549;50.042;8.968;2024-02-23T05:39:04;1.20;;;0.80;;
30998;SDS011;20549;50.042;8.968;2024-02-23T05:41:31;1.90;;;1.10;;
30998;SDS011;20549;50.042;8.968;2024-02-23T05:43:57;1.27;;;1.10;;
30998;SDS011;20549;50.042;8.968;2024-02-23T05:46:24;1.60;;;0.90;;
30998;SDS011;20549;50.042;8.968;2024-02-23T05:48:51;3.03;;;1.03;;
30998;SDS011;20549;50.042;8.968;2024-02-23T05:51:17;1.83;;;1.07;;
30998;SDS011;20549;50.042;8.968;2024-02-23T05:53:44;1.83;;;1.20;;
30998;SDS011;20549;50.042;8.968;2024-02-23T05:56:10;1.83;;;1.23;;
30998;SDS011;20549;50.042;8.968;2024-02-23T05:58:37;2.43;;;1.13;;
30998;SDS011;20549;50.042;8.968;2024-02-23T06:01:03;1.30;;;0.97;;
30998;SDS011;20549;50.042;8.968;2024-02-23T06:03:30;1.37;;;0.60;;
30998;SDS011;20549;50.042;8.968;2024-02-23T06:05:57;1.47;;;1.10;;
30998;SDS011;20549;50.042;8.968;2024-02-23T06:08:23;2.00;;;0.90;;
30998;SDS011;20549;50.042;8.968;2024-02-23T06:10:50;2.13;;;1.10;;
30998;SDS011;20549;50.042;8.968;2024-02-23T06:13:16;0.80;;;0.80;;
30998;SDS011;20549;50.042;8.968;2024-02-23T06:15:43;3.70;;;1.00;;
30998;SDS011;20549;50.042;8.968;2024-02-23T06:18:10;2.53;;;1.10;;
30998;SDS011;20549;50.042;8.968;2024-02-23T06:20:36;2.20;;;1.00;;
30998;SDS011;20549;50.042;8.968;2024-02-23T06:23:03;3.33;;;1.10;;
30998;SDS011;20549;50.042;8.968;2024-02-23T06:25:29;1.00;;;0.90;;
30998;SDS011;20549;50.042;8.968;2024-02-23T06:27:56;1.30;;;0.90;;
30998;SDS011;20549;50.042;8.968;2024-02-23T06:30:23;2.00;;;1.10;;
30998;SDS011;20549;50.042;8.968;2024-02-23T06:32:49;1.60;;;0.90;;
30998;SDS011;20549;50.042;8.968;2024-02-23T06:35:16;1.20;;;1.10;;
30998;SDS011;20549;50.042;8.968;2024-02-23T06:37:42;4.10;;;1.20;;
30998;SDS011;20549;50.042;8.968;2024-02-23T06:40:09;1.93;;;1.10;;
30998;SDS011;20549;50.042;8.968;2024-02-23T06:42:35;2.47;;;1.17;;
30998;SDS011;20549;50.042;8.968;2024-02-23T06:45:02;2.37;;;1.10;;
30998;SDS011;20549;50.042;8.968;2024-02-23T06:47:29;2.33;;;1.20;;
30998;SDS011;20549;50.042;8.968;2024-02-23T06:49:55;0.43;;;0.43;;
30998;SDS011;20549;50.042;8.968;2024-02-23T06:52:22;0.77;;;0.77;;
30998;SDS011;20549;50.042;8.968;2024-02-23T06:54:48;0.97;;;0.97;;
30998;SDS011;20549;50.042;8.968;2024-02-23T06:57:15;1.13;;;0.87;;
30998;SDS011;20549;50.042;8.968;2024-02-23T06:59:42;3.27;;;1.10;;
30998;SDS011;20549;50.042;8.968;2024-02-23T07:02:08;1.07;;;0.97;;
30998;SDS011;20549;50.042;8.968;2024-02-23T07:04:35;2.37;;;1.00;;
30998;SDS011;20549;50.042;8.968;2024-02-23T07:07:01;1.63;;;0.87;;
30998;SDS011;20549;50.042;8.968;2024-02-23T07:09:30;3.93;;;0.97;;
30998;SDS011;20549;50.042;8.968;2024-02-23T07:11:57;2.83;;;1.00;;
30998;SDS011;20549;50.042;8.968;2024-02-23T07:14:24;2.00;;;0.87;;
30998;SDS011;20549;50.042;8.968;2024-02-23T07:16:50;4.17;;;1.27;;
30998;SDS011;20549;50.042;8.968;2024-02-23T07:19:17;1.03;;;0.93;;
30998;SDS011;20549;50.042;8.968;2024-02-23T07:21:43;2.00;;;1.10;;
30998;SDS011;20549;50.042;8.968;2024-02-23T07:24:10;2.50;;;1.00;;
30998;SDS011;20549;50.042;8.968;2024-02-23T07:26:36;1.90;;;1.20;;
30998;SDS011;20549;50.042;8.968;2024-02-23T07:29:03;2.63;;;0.90;;
30998;SDS011;20549;50.042;8.968;2024-02-23T07:31:30;1.83;;;1.20;;
30998;SDS011;20549;50.042;8.968;2024-02-23T07:33:56;1.10;;;1.00;;
30998;SDS011;20549;50.042;8.968;2024-02-23T07:36:23;2.40;;;1.30;;
30998;SDS011;20549;50.042;8.968;2024-02-23T07:38:49;2.57;;;1.20;;
30998;SDS011;20549;50.042;8.968;2024-02-23T07:41:16;0.97;;;0.97;;
30998;SDS011;20549;50.042;8.968;2024-02-23T07:43:43;1.23;;;0.93;;
30998;SDS011;20549;50.042;8.968;2024-02-23T07:46:09;2.17;;;1.13;;
30998;SDS011;20549;50.042;8.968;2024-02-23T07:48:36;1.50;;;1.07;;
30998;SDS011;20549;50.042;8.968;2024-02-23T07:51:03;2.13;;;0.90;;
30998;SDS011;20549;50.042;8.968;2024-02-23T07:53:29;4.57;;;1.20;;
30998;SDS011;20549;50.042;8.968;2024-02-23T07:55:55;2.63;;;0.87;;
30998;SDS011;20549;50.042;8.968;2024-02-23T07:58:22;2.73;;;1.30;;
30998;SDS011;20549;50.042;8.968;2024-02-23T08:00:49;0.93;;;0.93;;
30998;SDS011;20549;50.042;8.968;2024-02-23T08:03:15;1.20;;;0.97;;
30998;SDS011;20549;50.042;8.968;2024-02-23T08:05:42;1.87;;;1.00;;
30998;SDS011;20549;50.042;8.968;2024-02-23T08:08:08;2.50;;;1.30;;
30998;SDS011;20549;50.042;8.968;2024-02-23T08:10:35;1.47;;;1.00;;
30998;SDS011;20549;50.042;8.968;2024-02-23T08:13:02;0.97;;;0.97;;
30998;SDS011;20549;50.042;8.968;2024-02-23T08:15:28;2.77;;;1.10;;
30998;SDS011;20549;50.042;8.968;2024-02-23T08:17:55;1.30;;;0.97;;
30998;SDS011;20549;50.042;8.968;2024-02-23T08:20:21;1.43;;;0.93;;
30998;SDS011;20549;50.042;8.968;2024-02-23T08:22:48;3.90;;;2.00;;
30998;SDS011;20549;50.042;8.968;2024-02-23T08:25:15;8.28;;;5.00;;
30998;SDS011;20549;50.042;8.968;2024-02-23T08:27:41;5.10;;;3.67;;
30998;SDS011;20549;50.042;8.968;2024-02-23T08:30:08;3.17;;;2.00;;
30998;SDS011;20549;50.042;8.968;2024-02-23T08:32:34;1.25;;;1.07;;
30998;SDS011;20549;50.042;8.968;2024-02-23T08:35:01;2.08;;;1.40;;
30998;SDS011;20549;50.042;8.968;2024-02-23T08:37:28;0.93;;;0.90;;
30998;SDS011;20549;50.042;8.968;2024-02-23T08:39:54;1.77;;;1.00;;
30998;SDS011;20549;50.042;8.968;2024-02-23T08:42:21;2.45;;;1.22;;
30998;SDS011;20549;50.042;8.968;2024-02-23T08:44:47;1.50;;;1.40;;
30998;SDS011;20549;50.042;8.968;2024-02-23T08:47:14;2.08;;;1.20;;
30998;SDS011;20549;50.042;8.968;2024-02-23T08:49:40;4.12;;;1.50;;
30998;SDS011;20549;50.042;8.968;2024-02-23T08:52:07;2.65;;;1.35;;
30998;SDS011;20549;50.042;8.968;2024-02-23T08:54:34;4.33;;;1.90;;
30998;SDS011;20549;50.042;8.968;2024-02-23T08:57:00;1.52;;;1.40;;
30998;SDS011;20549;50.042;8.968;2024-02-23T08:59:27;1.52;;;1.42;;
30998;SDS011;20549;50.042;8.968;2024-02-23T09:01:53;1.75;;;1.60;;
30998;SDS011;20549;50.042;8.968;2024-02-23T09:04:20;1.35;;;1.20;;
30998;SDS011;20549;50.042;8.968;2024-02-23T09:06:47;1.90;;;1.80;;
30998;SDS011;20549;50.042;8.968;2024-02-23T09:09:13;2.77;;;1.17;;
30998;SDS011;20549;50.042;8.968;2024-02-23T09:11:40;1.60;;;1.07;;
30998;SDS011;20549;50.042;8.968;2024-02-23T09:14:06;2.50;;;1.20;;
30998;SDS011;20549;50.042;8.968;2024-02-23T09:16:33;2.22;;;1.47;;
30998;SDS011;20549;50.042;8.968;2024-02-23T09:18:59;3.08;;;1.60;;
30998;SDS011;20549;50.042;8.968;2024-02-23T09:21:26;6.00;;;2.87;;
30998;SDS011;20549;50.042;8.968;2024-02-23T09:23:53;4.08;;;2.58;;
30998;SDS011;20549;50.042;8.968;2024-02-23T09:26:19;2.67;;;1.98;;
30998;SDS011;20549;50.042;8.968;2024-02-23T09:28:46;3.43;;;1.50;;
30998;SDS011;20549;50.042;8.968;2024-02-23T09:31:12;2.10;;;1.47;;
30998;SDS011;20549;50.042;8.968;2024-02-23T09:33:39;1.40;;;1.10;;
30998;SDS011;20549;50.042;8.968;2024-02-23T09:36:06;2.50;;;1.80;;
30998;SDS011;20549;50.042;8.968;2024-02-23T09:38:32;2.08;;;1.90;;
30998;SDS011;20549;50.042;8.968;2024-02-23T09:40:59;1.77;;;1.30;;
30998;SDS011;20549;50.042;8.968;2024-02-23T09:43:25;1.85;;;1.20;;
30998;SDS011;20549;50.042;8.968;2024-02-23T09:45:52;2.70;;;1.50;;
30998;SDS011;20549;50.042;8.968;2024-02-23T09:48:19;3.97;;;1.43;;
30998;SDS011;20549;50.042;8.968;2024-02-23T09:50:45;3.25;;;1.40;;
30998;SDS011;20549;50.042;8.968;2024-02-23T09:53:12;2.27;;;1.65;;
30998;SDS011;20549;50.042;8.968;2024-02-23T09:55:38;4.65;;;1.80;;
30998;SDS011;20549;50.042;8.968;2024-02-23T09:58:05;2.17;;;1.25;;
30998;SDS011;20549;50.042;8.968;2024-02-23T10:00:31;3.10;;;1.87;;
30998;SDS011;20549;50.042;8.968;2024-02-23T10:02:58;4.60;;;1.60;;
30998;SDS011;20549;50.042;8.968;2024-02-23T10:05:28;3.10;;;1.50;;
30998;SDS011;20549;50.042;8.968;2024-02-23T10:07:51;2.85;;;1.65;;
30998;SDS011;20549;50.042;8.968;2024-02-23T10:10:23;3.50;;;2.15;;
30998;SDS011;20549;50.042;8.968;2024-02-23T10:12:44;4.35;;;1.85;;
30998;SDS011;20549;50.042;8.968;2024-02-23T10:15:11;4.55;;;1.60;;
30998;SDS011;20549;50.042;8.968;2024-02-23T10:17:38;3.10;;;1.32;;
30998;SDS011;20549;50.042;8.968;2024-02-23T10:20:04;2.50;;;1.17;;
30998;SDS011;20549;50.042;8.968;2024-02-23T10:22:31;5.20;;;1.52;;
30998;SDS011;20549;50.042;8.968;2024-02-23T10:24:57;1.67;;;1.20;;
30998;SDS011;20549;50.042;8.968;2024-02-23T10:27:24;2.98;;;1.55;;
30998;SDS011;20549;50.042;8.968;2024-02-23T10:29:51;1.47;;;1.12;;
30998;SDS011;20549;50.042;8.968;2024-02-23T10:32:18;3.12;;;1.70;;
30998;SDS011;20549;50.042;8.968;2024-02-23T10:34:44;1.52;;;1.22;;
30998;SDS011;20549;50.042;8.968;2024-02-23T10:37:10;2.55;;;1.47;;
30998;SDS011;20549;50.042;8.968;2024-02-23T10:39:37;1.55;;;0.90;;
30998;SDS011;20549;50.042;8.968;2024-02-23T10:42:04;3.72;;;1.17;;
30998;SDS011;20549;50.042;8.968;2024-02-23T10:44:33;2.83;;;1.15;;
30998;SDS011;20549;50.042;8.968;2024-02-23T10:46:59;3.10;;;1.30;;
30998;SDS011;20549;50.042;8.968;2024-02-23T10:49:26;3.20;;;1.37;;
30998;SDS011;20549;50.042;8.968;2024-02-23T10:51:53;2.40;;;1.00;;
30998;SDS011;20549;50.042;8.968;2024-02-23T10:54:20;2.25;;;1.20;;
30998;SDS011;20549;50.042;8.968;2024-02-23T10:56:46;1.75;;;0.93;;
30998;SDS011;20549;50.042;8.968;2024-02-23T10:59:12;5.25;;;1.75;;
30998;SDS011;20549;50.042;8.968;2024-02-23T11:01:39;4.95;;;1.42;;
30998;SDS011;20549;50.042;8.968;2024-02-23T11:04:06;3.60;;;1.30;;
30998;SDS011;20549;50.042;8.968;2024-02-23T11:06:33;2.62;;;1.20;;
30998;SDS011;20549;50.042;8.968;2024-02-23T11:09:08;2.37;;;1.22;;
30998;SDS011;20549;50.042;8.968;2024-02-23T11:11:35;3.00;;;1.22;;
30998;SDS011;20549;50.042;8.968;2024-02-23T11:14:07;2.00;;;1.20;;
30998;SDS011;20549;50.042;8.968;2024-02-23T11:16:33;1.87;;;1.05;;
30998;SDS011;20549;50.042;8.968;2024-02-23T11:19:06;3.55;;;1.00;;
30998;SDS011;20549;50.042;8.968;2024-02-23T11:21:33;3.67;;;1.00;;
30998;SDS011;20549;50.042;8.968;2024-02-23T11:23:56;3.15;;;0.93;;
30998;SDS011;20549;50.042;8.968;2024-02-23T11:26:22;1.80;;;1.02;;
30998;SDS011;20549;50.042;8.968;2024-02-23T11:28:49;2.83;;;1.10;;
30998;SDS011;20549;50.042;8.968;2024-02-23T11:31:18;2.00;;;1.02;;
30998;SDS011;20549;50.042;8.968;2024-02-23T11:33:52;1.32;;;1.00;;
30998;SDS011;20549;50.042;8.968;2024-02-23T11:36:22;3.90;;;1.25;;
30998;SDS011;20549;50.042;8.968;2024-02-23T11:38:54;1.40;;;1.15;;
30998;SDS011;20549;50.042;8.968;2024-02-23T11:41:23;3.25;;;1.30;;
30998;SDS011;20549;50.042;8.968;2024-02-23T11:43:52;2.98;;;1.12;;
30998;SDS011;20549;50.042;8.968;2024-02-23T11:46:18;2.12;;;1.30;;
30998;SDS011;20549;50.042;8.968;2024-02-23T11:51:07;2.08;;;1.00;;
30998;SDS011;20549;50.042;8.968;2024-02-23T11:53:34;2.52;;;0.80;;
30998;SDS011;20549;50.042;8.968;2024-02-23T11:56:01;2.92;;;1.12;;
30998;SDS011;20549;50.042;8.968;2024-02-23T11:58:27;2.10;;;1.02;;
30998;SDS011;20549;50.042;8.968;2024-02-23T12:00:54;2.70;;;0.98;;
30998;SDS011;20549;50.042;8.968;2024-02-23T12:03:20;3.52;;;1.25;;
30998;SDS011;20549;50.042;8.968;2024-02-23T12:05:49;2.72;;;1.15;;
30998;SDS011;20549;50.042;8.968;2024-02-23T12:08:14;2.17;;;1.42;;
30998;SDS011;20549;50.042;8.968;2024-02-23T12:10:40;2.85;;;1.22;;
30998;SDS011;20549;50.042;8.968;2024-02-23T12:13:07;1.92;;;1.00;;
30998;SDS011;20549;50.042;8.968;2024-02-23T12:15:33;3.33;;;1.15;;
30998;SDS011;20549;50.042;8.968;2024-02-23T12:18:00;1.75;;;1.45;;
30998;SDS011;20549;50.042;8.968;2024-02-23T12:20:26;2.50;;;1.05;;
30998;SDS011;20549;50.042;8.968;2024-02-23T12:22:54;1.82;;;1.05;;
30998;SDS011;20549;50.042;8.968;2024-02-23T12:25:22;3.37;;;1.10;;
30998;SDS011;20549;50.042;8.968;2024-02-23T12:27:53;2.35;;;1.50;;
30998;SDS011;20549;50.042;8.968;2024-02-23T12:30:15;1.65;;;1.05;;
30998;SDS011;20549;50.042;8.968;2024-02-23T12:32:42;4.92;;;1.55;;
30998;SDS011;20549;50.042;8.968;2024-02-23T12:35:10;1.37;;;0.95;;
30998;SDS011;20549;50.042;8.968;2024-02-23T12:37:38;0.98;;;0.98;;
30998;SDS011;20549;50.042;8.968;2024-02-23T12:40:05;2.90;;;1.30;;
30998;SDS011;20549;50.042;8.968;2024-02-23T12:42:31;1.32;;;1.20;;
30998;SDS011;20549;50.042;8.968;2024-02-23T12:44:58;2.15;;;1.25;;
30998;SDS011;20549;50.042;8.968;2024-02-23T12:47:24;2.25;;;1.05;;
30998;SDS011;20549;50.042;8.968;2024-02-23T12:49:51;2.05;;;1.32;;
30998;SDS011;20549;50.042;8.968;2024-02-23T12:52:17;1.62;;;1.40;;
30998;SDS011;20549;50.042;8.968;2024-02-23T12:54:44;2.05;;;1.00;;
30998;SDS011;20549;50.042;8.968;2024-02-23T12:57:11;2.67;;;0.88;;
30998;SDS011;20549;50.042;8.968;2024-02-23T12:59:37;1.57;;;1.07;;
30998;SDS011;20549;50.042;8.968;2024-02-23T13:02:04;1.50;;;1.40;;
30998;SDS011;20549;50.042;8.968;2024-02-23T13:04:30;4.37;;;2.72;;
30998;SDS011;20549;50.042;8.968;2024-02-23T13:06:57;8.95;;;3.72;;
30998;SDS011;20549;50.042;8.968;2024-02-23T13:09:24;3.95;;;2.00;;
30998;SDS011;20549;50.042;8.968;2024-02-23T13:11:50;2.47;;;1.45;;
30998;SDS011;20549;50.042;8.968;2024-02-23T13:14:17;8.80;;;4.22;;
30998;SDS011;20549;50.042;8.968;2024-02-23T13:16:43;6.95;;;4.45;;
30998;SDS011;20549;50.042;8.968;2024-02-23T13:19:10;4.55;;;2.62;;
30998;SDS011;20549;50.042;8.968;2024-02-23T13:21:36;4.30;;;2.27;;
30998;SDS011;20549;50.042;8.968;2024-02-23T13:24:03;3.22;;;1.40;;
30998;SDS011;20549;50.042;8.968;2024-02-23T13:26:30;2.92;;;1.42;;
30998;SDS011;20549;50.042;8.968;2024-02-23T13:28:56;2.10;;;1.30;;
30998;SDS011;20549;50.042;8.968;2024-02-23T13:31:23;1.60;;;1.02;;
30998;SDS011;20549;50.042;8.968;2024-02-23T13:33:49;3.30;;;1.40;;
30998;SDS011;20549;50.042;8.968;2024-02-23T13:36:16;3.22;;;1.20;;
30998;SDS011;20549;50.042;8.968;2024-02-23T13:38:43;2.65;;;1.57;;
30998;SDS011;20549;50.042;8.968;2024-02-23T13:41:09;3.95;;;1.90;;
30998;SDS011;20549;50.042;8.968;2024-02-23T13:43:36;2.45;;;1.57;;
30998;SDS011;20549;50.042;8.968;2024-02-23T13:46:02;3.37;;;1.40;;
30998;SDS011;20549;50.042;8.968;2024-02-23T13:48:29;4.03;;;1.50;;
30998;SDS011;20549;50.042;8.968;2024-02-23T13:50:56;3.12;;;1.50;;
30998;SDS011;20549;50.042;8.968;2024-02-23T13:53:22;2.70;;;1.27;;
30998;SDS011;20549;50.042;8.968;2024-02-23T13:55:49;2.02;;;1.07;;
30998;SDS011;20549;50.042;8.968;2024-02-23T13:58:15;2.20;;;1.30;;
30998;SDS011;20549;50.042;8.968;2024-02-23T14:00:42;1.95;;;1.37;;
30998;SDS011;20549;50.042;8.968;2024-02-23T14:03:09;3.87;;;1.32;;
30998;SDS011;20549;50.042;8.968;2024-02-23T14:05:35;3.62;;;1.20;;
30998;SDS011;20549;50.042;8.968;2024-02-23T14:08:02;1.47;;;1.35;;
30998;SDS011;20549;50.042;8.968;2024-02-23T14:10:28;3.95;;;1.60;;
30998;SDS011;20549;50.042;8.968;2024-02-23T14:12:55;0.85;;;0.85;;
30998;SDS011;20549;50.042;8.968;2024-02-23T14:15:21;1.17;;;1.00;;
30998;SDS011;20549;50.042;8.968;2024-02-23T14:17:48;1.17;;;1.07;;
30998;SDS011;20549;50.042;8.968;2024-02-23T14:20:15;2.05;;;0.90;;
30998;SDS011;20549;50.042;8.968;2024-02-23T14:22:41;1.85;;;1.10;;
30998;SDS011;20549;50.042;8.968;2024-02-23T14:25:08;2.12;;;1.10;;
30998;SDS011;20549;50.042;8.968;2024-02-23T14:27:34;1.82;;;1.02;;
30998;SDS011;20549;50.042;8.968;2024-02-23T14:30:01;2.22;;;1.37;;
30998;SDS011;20549;50.042;8.968;2024-02-23T14:32:28;2.17;;;1.45;;
30998;SDS011;20549;50.042;8.968;2024-02-23T14:34:54;4.08;;;1.30;;
30998;SDS011;20549;50.042;8.968;2024-02-23T14:37:21;4.60;;;1.45;;
30998;SDS011;20549;50.042;8.968;2024-02-23T14:39:47;2.35;;;1.45;;
30998;SDS011;20549;50.042;8.968;2024-02-23T14:42:14;1.15;;;1.05;;
30998;SDS011;20549;50.042;8.968;2024-02-23T14:44:41;1.87;;;0.90;;
30998;SDS011;20549;50.042;8.968;2024-02-23T14:47:07;1.75;;;1.42;;